createdAt,value
2017-05-27T00:02:49.716Z,1017.65
2017-05-27T00:03:49.646Z,1017.64
2017-05-27T00:04:49.583Z,1017.62
2017-05-27T00:05:49.520Z,1017.63
2017-05-27T00:06:49.457Z,1017.6
2017-05-27T00:07:49.394Z,1017.6
2017-05-27T00:08:49.332Z,1017.62
2017-05-27T00:09:49.268Z,1017.62
2017-05-27T00:10:49.206Z,1017.63
2017-05-27T00:11:49.141Z,1017.63
2017-05-27T00:12:49.079Z,1017.62
2017-05-27T00:13:49.016Z,1017.62
2017-05-27T00:14:48.970Z,1017.62
2017-05-27T00:15:48.889Z,1017.61
2017-05-27T00:16:48.826Z,1017.59
2017-05-27T00:17:48.762Z,1017.59
2017-05-27T00:18:48.701Z,1017.6
2017-05-27T00:19:48.638Z,1017.61
2017-05-27T00:20:48.575Z,1017.6
2017-05-27T00:21:48.512Z,1017.63
2017-05-27T00:22:48.449Z,1017.61
2017-05-27T00:23:48.386Z,1017.61
2017-05-27T00:24:48.323Z,1017.63
2017-05-27T00:25:48.260Z,1017.61
2017-05-27T00:26:48.197Z,1017.61
2017-05-27T00:27:48.134Z,1017.62
2017-05-27T00:28:48.082Z,1017.61
2017-05-27T00:29:48.008Z,1017.63
2017-05-27T00:30:47.945Z,1017.64
2017-05-27T00:31:47.881Z,1017.67
2017-05-27T00:32:47.818Z,1017.64
2017-05-27T00:33:47.757Z,1017.67
2017-05-27T00:34:47.693Z,1017.67
2017-05-27T00:35:47.629Z,1017.67
2017-05-27T00:36:47.566Z,1017.68
2017-05-27T00:37:47.503Z,1017.66
2017-05-27T00:38:47.441Z,1017.66
2017-05-27T00:39:47.377Z,1017.68
2017-05-27T00:40:47.316Z,1017.67
2017-05-27T00:41:47.251Z,1017.68
2017-05-27T00:42:47.189Z,1017.68
2017-05-27T00:43:47.126Z,1017.72
2017-05-27T00:44:47.061Z,1017.72
2017-05-27T00:45:46.999Z,1017.71
2017-05-27T00:46:46.937Z,1017.76
2017-05-27T00:47:46.873Z,1017.75
2017-05-27T00:48:46.810Z,1017.8
2017-05-27T00:49:46.747Z,1017.78
2017-05-27T00:50:46.685Z,1017.81
2017-05-27T00:51:46.621Z,1017.82
2017-05-27T00:52:46.558Z,1017.83
2017-05-27T00:53:46.496Z,1017.83
2017-05-27T00:54:46.432Z,1017.88
2017-05-27T00:55:46.369Z,1017.86
2017-05-27T00:56:46.307Z,1017.88
2017-05-27T00:57:46.243Z,1017.87
2017-05-27T00:58:46.181Z,1017.9
2017-05-27T00:59:46.117Z,1017.91
2017-05-27T01:00:46.054Z,1017.88
2017-05-27T01:01:45.992Z,1017.9
2017-05-27T01:02:45.927Z,1017.87
2017-05-27T01:03:45.863Z,1017.9
2017-05-27T01:04:45.802Z,1017.9
2017-05-27T01:05:45.739Z,1017.9
2017-05-27T01:06:45.675Z,1017.86
2017-05-27T01:07:45.613Z,1017.85
2017-05-27T01:08:45.550Z,1017.83
2017-05-27T01:09:45.487Z,1017.85
2017-05-27T01:10:45.424Z,1017.87
2017-05-27T01:11:45.361Z,1017.85
2017-05-27T01:12:45.298Z,1017.86
2017-05-27T01:13:45.236Z,1017.88
2017-05-27T01:14:45.172Z,1017.88
2017-05-27T01:15:45.109Z,1017.89
2017-05-27T01:16:45.048Z,1017.88
2017-05-27T01:17:44.985Z,1017.93
2017-05-27T01:18:44.923Z,1017.92
2017-05-27T01:19:44.857Z,1017.93
2017-05-27T01:20:44.795Z,1017.95
2017-05-27T01:21:44.732Z,1017.93
2017-05-27T01:22:44.668Z,1017.99
2017-05-27T01:23:44.605Z,1017.93
2017-05-27T01:24:44.543Z,1017.97
2017-05-27T01:25:44.481Z,1017.97
2017-05-27T01:26:44.417Z,1017.98
2017-05-27T01:27:44.354Z,1017.98
2017-05-27T01:28:44.290Z,1018.01
2017-05-27T01:29:44.227Z,1017.99
2017-05-27T01:30:44.165Z,1017.97
2017-05-27T01:31:44.101Z,1018.02
2017-05-27T01:32:44.038Z,1018.02
2017-05-27T01:33:43.975Z,1018.05
2017-05-27T01:34:43.913Z,1018.02
2017-05-27T01:35:43.849Z,1018.01
2017-05-27T01:36:43.787Z,1018.04
2017-05-27T01:37:43.724Z,1018.02
2017-05-27T01:38:43.666Z,1018.04
2017-05-27T01:39:43.597Z,1018.03
2017-05-27T01:40:43.535Z,1018.02
2017-05-27T01:41:43.472Z,1018.04
2017-05-27T01:42:43.410Z,1018.03
2017-05-27T01:43:43.347Z,1018.01
2017-05-27T01:44:43.283Z,1018.04
2017-05-27T01:45:43.222Z,1018.03
2017-05-27T01:46:43.159Z,1018.04
2017-05-27T01:47:43.097Z,1018.03
2017-05-27T01:48:43.032Z,1018.04
2017-05-27T01:49:42.969Z,1018.06
2017-05-27T01:50:42.905Z,1018.02
2017-05-27T01:51:42.842Z,1018.01
2017-05-27T01:52:42.780Z,1018.01
2017-05-27T01:53:42.717Z,1018.02
2017-05-27T01:54:42.654Z,1018.01
2017-05-27T01:55:42.591Z,1018.01
2017-05-27T01:56:42.529Z,1018.03
2017-05-27T01:57:42.465Z,1018.01
2017-05-27T01:58:42.402Z,1018.02
2017-05-27T01:59:42.340Z,1018.05
2017-05-27T02:00:42.278Z,1018.05
2017-05-27T02:01:42.212Z,1018.07
2017-05-27T02:02:42.151Z,1018.05
2017-05-27T02:03:42.088Z,1018.03
2017-05-27T02:04:42.025Z,1018.06
2017-05-27T02:05:41.963Z,1018.06
2017-05-27T02:06:41.899Z,1018.05
2017-05-27T02:07:41.837Z,1018.07
2017-05-27T02:08:41.772Z,1018.07
2017-05-27T02:09:41.710Z,1018.03
2017-05-27T02:10:41.648Z,1018.02
2017-05-27T02:11:41.586Z,1018.06
2017-05-27T02:12:41.521Z,1018.05
2017-05-27T02:13:41.458Z,1018
2017-05-27T02:14:41.396Z,1018.06
2017-05-27T02:15:41.332Z,1018.08
2017-05-27T02:16:41.270Z,1018.08
2017-05-27T02:17:41.207Z,1018.07
2017-05-27T02:18:41.145Z,1018.07
2017-05-27T02:19:41.095Z,1018.11
2017-05-27T02:20:41.019Z,1018.06
2017-05-27T02:21:40.955Z,1018.08
2017-05-27T02:22:40.894Z,1018.05
2017-05-27T02:23:40.829Z,1018.08
2017-05-27T02:24:40.766Z,1018.06
2017-05-27T02:25:40.704Z,1018.07
2017-05-27T02:26:40.640Z,1018.05
2017-05-27T02:27:40.577Z,1018.04
2017-05-27T02:28:40.515Z,1018.04
2017-05-27T02:29:40.453Z,1018.02
2017-05-27T02:30:40.387Z,1018.05
2017-05-27T02:31:40.325Z,1018.08
2017-05-27T02:32:40.266Z,1018.03
2017-05-27T02:33:40.200Z,1018.05
2017-05-27T02:34:40.137Z,1018.03
2017-05-27T02:35:40.074Z,1018.05
2017-05-27T02:36:40.012Z,1018.09
2017-05-27T02:37:39.948Z,1018.04
2017-05-27T02:38:39.887Z,1018.08
2017-05-27T02:39:39.824Z,1018.11
2017-05-27T02:40:39.761Z,1018.1
2017-05-27T02:41:39.697Z,1018.05
2017-05-27T02:42:39.635Z,1018.06
2017-05-27T02:43:39.571Z,1018.11
2017-05-27T02:44:39.510Z,1018.08
2017-05-27T02:45:39.446Z,1018.1
2017-05-27T02:46:39.383Z,1018.13
2017-05-27T02:47:39.321Z,1018.14
2017-05-27T02:48:39.258Z,1018.12
2017-05-27T02:49:39.194Z,1018.17
2017-05-27T02:50:39.132Z,1018.17
2017-05-27T02:51:39.068Z,1018.16
2017-05-27T02:52:39.005Z,1018.14
2017-05-27T02:53:38.941Z,1018.2
2017-05-27T02:54:38.879Z,1018.23
2017-05-27T02:55:38.817Z,1018.23
2017-05-27T02:56:38.753Z,1018.23
2017-05-27T02:57:38.690Z,1018.24
2017-05-27T02:58:38.628Z,1018.24
2017-05-27T02:59:38.564Z,1018.23
2017-05-27T03:00:38.502Z,1018.26
2017-05-27T03:01:38.439Z,1018.25
2017-05-27T03:02:38.377Z,1018.25
2017-05-27T03:03:38.314Z,1018.31
2017-05-27T03:04:38.250Z,1018.28
2017-05-27T03:05:38.188Z,1018.26
2017-05-27T03:06:38.125Z,1018.28
2017-05-27T03:07:38.063Z,1018.28
2017-05-27T03:08:37.999Z,1018.29
2017-05-27T03:09:37.937Z,1018.33
2017-05-27T03:10:37.873Z,1018.3
2017-05-27T03:11:37.809Z,1018.26
2017-05-27T03:12:37.747Z,1018.27
2017-05-27T03:13:37.687Z,1018.3
2017-05-27T03:14:37.622Z,1018.3
2017-05-27T03:15:37.560Z,1018.32
2017-05-27T03:16:37.498Z,1018.33
2017-05-27T03:17:37.434Z,1018.36
2017-05-27T03:18:37.371Z,1018.33
2017-05-27T03:19:37.309Z,1018.35
2017-05-27T03:20:37.247Z,1018.36
2017-05-27T03:21:37.182Z,1018.35
2017-05-27T03:22:37.119Z,1018.36
2017-05-27T03:23:37.056Z,1018.35
2017-05-27T03:24:36.994Z,1018.33
2017-05-27T03:25:36.930Z,1018.31
2017-05-27T03:26:36.867Z,1018.35
2017-05-27T03:27:36.807Z,1018.28
2017-05-27T03:28:36.742Z,1018.3
2017-05-27T03:29:36.680Z,1018.38
2017-05-27T03:30:36.617Z,1018.35
2017-05-27T03:31:36.556Z,1018.33
2017-05-27T03:32:36.492Z,1018.35
2017-05-27T03:33:36.428Z,1018.39
2017-05-27T03:34:36.367Z,1018.35
2017-05-27T03:35:36.303Z,1018.36
2017-05-27T03:36:36.239Z,1018.38
2017-05-27T03:37:36.189Z,1018.42
2017-05-27T03:38:36.116Z,1018.42
2017-05-27T03:39:36.051Z,1018.39
2017-05-27T03:40:35.990Z,1018.4
2017-05-27T03:41:35.926Z,1018.37
2017-05-27T03:42:35.864Z,1018.42
2017-05-27T03:43:35.800Z,1018.41
2017-05-27T03:44:35.738Z,1018.37
2017-05-27T03:45:35.674Z,1018.41
2017-05-27T03:46:35.612Z,1018.38
2017-05-27T03:47:35.549Z,1018.44
2017-05-27T03:48:35.486Z,1018.47
2017-05-27T03:49:35.423Z,1018.47
2017-05-27T03:50:35.360Z,1018.47
2017-05-27T03:51:35.299Z,1018.48
2017-05-27T03:52:35.236Z,1018.47
2017-05-27T03:53:35.172Z,1018.48
2017-05-27T03:54:35.110Z,1018.54
2017-05-27T03:55:35.046Z,1018.53
2017-05-27T03:56:34.986Z,1018.57
2017-05-27T03:57:34.922Z,1018.53
2017-05-27T03:58:34.857Z,1018.53
2017-05-27T03:59:34.794Z,1018.56
2017-05-27T04:00:34.733Z,1018.54
2017-05-27T04:01:34.669Z,1018.58
2017-05-27T04:02:34.607Z,1018.58
2017-05-27T04:03:34.545Z,1018.58
2017-05-27T04:04:34.483Z,1018.69
2017-05-27T04:05:34.417Z,1018.69
2017-05-27T04:06:34.357Z,1018.88
2017-05-27T04:07:34.292Z,1018.59
2017-05-27T04:08:34.230Z,1018.58
2017-05-27T04:09:34.166Z,1018.63
2017-05-27T04:10:34.105Z,1018.63
2017-05-27T04:11:34.041Z,1018.61
2017-05-27T04:12:33.977Z,1018.61
2017-05-27T04:13:33.957Z,1018.57
2017-05-27T04:14:33.853Z,1018.62
2017-05-27T04:15:33.790Z,1018.61
2017-05-27T04:16:33.726Z,1018.59
2017-05-27T04:17:33.667Z,1018.62
2017-05-27T04:18:33.601Z,1018.63
2017-05-27T04:19:33.538Z,1018.63
2017-05-27T04:20:33.475Z,1018.62
2017-05-27T04:21:33.412Z,1018.6
2017-05-27T04:22:33.349Z,1018.59
2017-05-27T04:23:33.288Z,1018.62
2017-05-27T04:24:33.223Z,1018.64
2017-05-27T04:25:33.161Z,1018.64
2017-05-27T04:26:33.098Z,1018.64
2017-05-27T04:27:33.035Z,1018.65
2017-05-27T04:28:32.972Z,1018.62
2017-05-27T04:29:32.910Z,1018.62
2017-05-27T04:30:32.846Z,1018.62
2017-05-27T04:31:32.783Z,1018.62
2017-05-27T04:32:32.719Z,1018.59
2017-05-27T04:33:32.658Z,1018.68
2017-05-27T04:34:32.594Z,1018.64
2017-05-27T04:35:32.531Z,1018.67
2017-05-27T04:36:32.468Z,1018.65
2017-05-27T04:37:32.406Z,1018.6
2017-05-27T04:38:32.341Z,1018.7
2017-05-27T04:39:32.279Z,1018.65
2017-05-27T04:40:32.217Z,1018.66
2017-05-27T04:41:32.154Z,1018.62
2017-05-27T04:42:32.091Z,1018.67
2017-05-27T04:43:32.027Z,1018.66
2017-05-27T04:44:31.965Z,1018.62
2017-05-27T04:45:31.901Z,1018.66
2017-05-27T04:46:31.839Z,1018.62
2017-05-27T04:47:31.776Z,1018.67
2017-05-27T04:48:31.917Z,1018.68
2017-05-27T04:49:31.650Z,1018.67
2017-05-27T04:50:31.586Z,1018.7
2017-05-27T04:51:31.524Z,1018.7
2017-05-27T04:52:31.461Z,1018.72
2017-05-27T04:53:31.399Z,1018.71
2017-05-27T04:54:31.336Z,1018.78
2017-05-27T04:55:31.272Z,1018.75
2017-05-27T04:56:31.209Z,1018.77
2017-05-27T04:57:31.148Z,1018.79
2017-05-27T04:58:31.084Z,1018.72
2017-05-27T04:59:31.021Z,1018.73
2017-05-27T05:00:30.958Z,1018.75
2017-05-27T05:01:30.895Z,1018.75
2017-05-27T05:02:30.831Z,1018.73
2017-05-27T05:03:30.768Z,1018.75
2017-05-27T05:04:30.708Z,1018.76
2017-05-27T05:05:30.644Z,1018.79
2017-05-27T05:06:30.581Z,1018.79
2017-05-27T05:07:30.516Z,1018.77
2017-05-27T05:08:30.453Z,1018.82
2017-05-27T05:09:30.391Z,1018.81
2017-05-27T05:10:30.329Z,1018.79
2017-05-27T05:11:30.265Z,1018.85
2017-05-27T05:12:30.202Z,1018.84
2017-05-27T05:13:30.139Z,1018.84
2017-05-27T05:14:30.076Z,1018.85
2017-05-27T05:15:30.012Z,1018.83
2017-05-27T05:16:29.951Z,1018.86
2017-05-27T05:17:29.886Z,1018.81
2017-05-27T05:18:29.823Z,1018.85
2017-05-27T05:19:29.762Z,1018.86
2017-05-27T05:20:29.698Z,1018.85
2017-05-27T05:21:29.635Z,1018.84
2017-05-27T05:22:29.572Z,1018.85
2017-05-27T05:23:29.509Z,1018.85
2017-05-27T05:24:29.446Z,1018.88
2017-05-27T05:25:29.381Z,1018.89
2017-05-27T05:26:29.321Z,1018.88
2017-05-27T05:27:29.258Z,1018.88
2017-05-27T05:28:29.194Z,1018.87
2017-05-27T05:29:29.130Z,1018.89
2017-05-27T05:30:29.068Z,1018.87
2017-05-27T05:31:29.005Z,1018.86
2017-05-27T05:32:28.942Z,1018.9
2017-05-27T05:33:28.878Z,1018.85
2017-05-27T05:34:28.816Z,1018.88
2017-05-27T05:35:28.752Z,1018.88
2017-05-27T05:36:28.689Z,1018.88
2017-05-27T05:37:28.625Z,1018.9
2017-05-27T05:38:28.563Z,1018.88
2017-05-27T05:39:28.501Z,1018.88
2017-05-27T05:40:28.435Z,1018.91
2017-05-27T05:41:28.373Z,1018.88
2017-05-27T05:42:28.310Z,1018.92
2017-05-27T05:43:28.250Z,1018.92
2017-05-27T05:44:28.183Z,1018.9
2017-05-27T05:45:28.122Z,1018.88
2017-05-27T05:46:28.058Z,1018.91
2017-05-27T05:47:27.994Z,1018.91
2017-05-27T05:48:27.931Z,1018.9
2017-05-27T05:49:27.868Z,1018.94
2017-05-27T05:50:27.806Z,1018.91
2017-05-27T05:51:27.742Z,1018.93
2017-05-27T05:52:27.680Z,1018.95
2017-05-27T05:53:27.617Z,1018.95
2017-05-27T05:54:27.554Z,1018.97
2017-05-27T05:55:27.491Z,1018.98
2017-05-27T05:56:27.430Z,1018.96
2017-05-27T05:57:27.365Z,1019
2017-05-27T05:58:27.301Z,1019
2017-05-27T05:59:27.239Z,1019.03
2017-05-27T06:00:27.175Z,1019.04
2017-05-27T06:01:27.113Z,1019.1
2017-05-27T06:02:27.049Z,1019.06
2017-05-27T06:03:26.986Z,1019.09
2017-05-27T06:04:26.924Z,1019.11
2017-05-27T06:05:26.861Z,1019.13
2017-05-27T06:06:26.797Z,1019.12
2017-05-27T06:07:26.734Z,1019.15
2017-05-27T06:08:26.671Z,1019.13
2017-05-27T06:09:26.607Z,1019.14
2017-05-27T06:10:26.544Z,1019.15
2017-05-27T06:11:26.482Z,1019.12
2017-05-27T06:12:26.419Z,1019.15
2017-05-27T06:13:26.356Z,1019.09
2017-05-27T06:14:26.293Z,1019.08
2017-05-27T06:15:26.231Z,1019.05
2017-05-27T06:16:26.167Z,1019.09
2017-05-27T06:17:26.103Z,1019.07
2017-05-27T06:18:26.041Z,1019.13
2017-05-27T06:19:25.978Z,1019.07
2017-05-27T06:20:25.913Z,1019.1
2017-05-27T06:21:25.861Z,1019.11
2017-05-27T06:22:25.798Z,1019.15
2017-05-27T06:23:25.725Z,1019.12
2017-05-27T06:24:25.662Z,1019.15
2017-05-27T06:25:25.601Z,1019.18
2017-05-27T06:26:25.536Z,1019.19
2017-05-27T06:27:25.473Z,1019.19
2017-05-27T06:28:25.409Z,1019.23
2017-05-27T06:29:25.345Z,1019.2
2017-05-27T06:30:25.283Z,1019.21
2017-05-27T06:31:25.220Z,1019.2
2017-05-27T06:32:25.158Z,1019.22
2017-05-27T06:33:25.095Z,1019.19
2017-05-27T06:34:25.032Z,1019.22
2017-05-27T06:35:24.968Z,1019.24
2017-05-27T06:36:24.905Z,1019.24
2017-05-27T06:37:24.842Z,1019.3
2017-05-27T06:38:24.779Z,1019.26
2017-05-27T06:39:24.717Z,1019.26
2017-05-27T06:40:24.654Z,1019.24
2017-05-27T06:41:24.591Z,1019.25
2017-05-27T06:42:24.527Z,1019.26
2017-05-27T06:43:24.464Z,1019.26
2017-05-27T06:44:24.405Z,1019.23
2017-05-27T06:45:24.339Z,1019.25
2017-05-27T06:46:24.275Z,1019.25
2017-05-27T06:47:24.219Z,1019.25
2017-05-27T06:48:24.150Z,1019.25
2017-05-27T06:49:24.086Z,1019.25
2017-05-27T06:50:24.023Z,1019.25
2017-05-27T06:51:23.960Z,1019.26
2017-05-27T06:52:23.897Z,1019.29
2017-05-27T06:53:23.834Z,1019.28
2017-05-27T06:54:23.771Z,1019.25
2017-05-27T06:55:23.707Z,1019.29
2017-05-27T06:56:23.645Z,1019.26
2017-05-27T06:57:23.581Z,1019.25
2017-05-27T06:58:23.519Z,1019.23
2017-05-27T06:59:23.455Z,1019.26
2017-05-27T07:00:23.391Z,1019.25
2017-05-27T07:01:23.329Z,1019.26
2017-05-27T07:02:23.267Z,1019.28
2017-05-27T07:03:23.208Z,1019.27
2017-05-27T07:04:23.140Z,1019.27
2017-05-27T07:05:23.076Z,1019.32
2017-05-27T07:06:23.014Z,1019.29
2017-05-27T07:07:22.951Z,1019.34
2017-05-27T07:08:22.887Z,1019.36
2017-05-27T07:09:22.825Z,1019.34
2017-05-27T07:10:22.762Z,1019.3
2017-05-27T07:11:22.698Z,1019.39
2017-05-27T07:12:22.634Z,1019.33
2017-05-27T07:13:22.571Z,1019.36
2017-05-27T07:14:22.509Z,1019.33
2017-05-27T07:15:22.448Z,1019.38
2017-05-27T07:16:22.383Z,1019.34
2017-05-27T07:17:22.320Z,1019.38
2017-05-27T07:18:22.257Z,1019.38
2017-05-27T07:19:22.192Z,1019.38
2017-05-27T07:20:22.143Z,1019.39
2017-05-27T07:21:22.078Z,1019.38
2017-05-27T07:22:22.004Z,1019.38
2017-05-27T07:23:21.940Z,1019.41
2017-05-27T07:24:21.877Z,1019.4
2017-05-27T07:25:21.814Z,1019.45
2017-05-27T07:26:21.750Z,1019.43
2017-05-27T07:27:21.742Z,1019.43
2017-05-27T07:28:21.625Z,1019.41
2017-05-27T07:29:21.564Z,1019.4
2017-05-27T07:30:21.499Z,1019.38
2017-05-27T07:31:21.436Z,1019.37
2017-05-27T07:32:21.373Z,1019.34
2017-05-27T07:33:21.311Z,1019.36
2017-05-27T07:34:21.246Z,1019.36
2017-05-27T07:35:21.183Z,1019.32
2017-05-27T07:36:21.120Z,1019.35
2017-05-27T07:37:21.056Z,1019.35
2017-05-27T07:38:20.994Z,1019.33
2017-05-27T07:39:20.944Z,1019.38
2017-05-27T07:40:20.867Z,1019.34
2017-05-27T07:41:20.806Z,1019.36
2017-05-27T07:42:20.742Z,1019.36
2017-05-27T07:43:20.683Z,1019.39
2017-05-27T07:44:20.615Z,1019.39
2017-05-27T07:45:20.552Z,1019.4
2017-05-27T07:46:20.490Z,1019.42
2017-05-27T07:47:20.426Z,1019.36
2017-05-27T07:48:20.362Z,1019.36
2017-05-27T07:49:20.300Z,1019.41
2017-05-27T07:50:20.236Z,1019.38
2017-05-27T07:51:20.174Z,1019.4
2017-05-27T07:52:20.110Z,1019.35
2017-05-27T07:53:20.047Z,1019.37
2017-05-27T07:54:19.985Z,1019.37
2017-05-27T07:55:19.923Z,1019.31
2017-05-27T07:56:19.857Z,1019.34
2017-05-27T07:57:19.795Z,1019.38
2017-05-27T07:58:19.731Z,1019.35
2017-05-27T07:59:19.669Z,1019.37
2017-05-27T08:00:19.606Z,1019.33
2017-05-27T08:01:19.542Z,1019.35
2017-05-27T08:02:19.479Z,1019.33
2017-05-27T08:03:19.415Z,1019.37
2017-05-27T08:04:19.353Z,1019.29
2017-05-27T08:05:19.291Z,1019.32
2017-05-27T08:06:19.225Z,1019.3
2017-05-27T08:07:19.163Z,1019.28
2017-05-27T08:08:19.100Z,1019.28
2017-05-27T08:09:19.037Z,1019.28
2017-05-27T08:10:19.030Z,1019.27
2017-05-27T08:11:18.910Z,1019.3
2017-05-27T08:12:18.846Z,1019.26
2017-05-27T08:13:18.784Z,1019.25
2017-05-27T08:14:18.721Z,1019.26
2017-05-27T08:15:18.659Z,1019.23
2017-05-27T08:16:18.596Z,1019.24
2017-05-27T08:17:18.532Z,1019.24
2017-05-27T08:18:18.470Z,1019.22
2017-05-27T08:19:18.405Z,1019.22
2017-05-27T08:20:18.343Z,1019.24
2017-05-27T08:21:18.278Z,1019.2
2017-05-27T08:22:18.216Z,1019.25
2017-05-27T08:23:18.174Z,1019.21
2017-05-27T08:24:18.089Z,1019.25
2017-05-27T08:25:18.063Z,1019.26
2017-05-27T08:26:17.964Z,1019.27
2017-05-27T08:27:17.902Z,1019.24
2017-05-27T08:28:17.837Z,1019.23
2017-05-27T08:29:17.773Z,1019.22
2017-05-27T08:30:17.710Z,1019.21
2017-05-27T08:31:17.647Z,1019.21
2017-05-27T08:32:17.584Z,1019.17
2017-05-27T08:33:17.521Z,1019.22
2017-05-27T08:34:17.456Z,1019.18
2017-05-27T08:35:17.397Z,1019.23
2017-05-27T08:36:17.332Z,1019.21
2017-05-27T08:37:17.267Z,1019.22
2017-05-27T08:38:17.204Z,1019.2
2017-05-27T08:39:17.141Z,1019.2
2017-05-27T08:40:17.076Z,1019.2
2017-05-27T08:41:17.014Z,1019.24
2017-05-27T08:42:16.952Z,1019.24
2017-05-27T08:43:16.887Z,1019.18
2017-05-27T08:44:16.825Z,1019.23
2017-05-27T08:45:16.763Z,1019.19
2017-05-27T08:46:16.698Z,1019.19
2017-05-27T08:47:16.635Z,1019.2
2017-05-27T08:48:16.572Z,1019.17
2017-05-27T08:49:16.509Z,1019.21
2017-05-27T08:50:16.444Z,1019.2
2017-05-27T08:51:16.381Z,1019.15
2017-05-27T08:52:16.317Z,1019.15
2017-05-27T08:53:16.256Z,1019.14
2017-05-27T08:54:16.193Z,1019.14
2017-05-27T08:55:16.128Z,1019.16
2017-05-27T08:56:16.065Z,1019.16
2017-05-27T08:57:16.001Z,1019.16
2017-05-27T08:58:15.938Z,1019.23
2017-05-27T08:59:15.875Z,1019.21
2017-05-27T09:00:15.812Z,1019.14
2017-05-27T09:01:15.748Z,1019.17
2017-05-27T09:02:15.685Z,1019.18
2017-05-27T09:03:15.621Z,1019.17
2017-05-27T09:04:15.560Z,1019.18
2017-05-27T09:05:15.495Z,1019.18
2017-05-27T09:06:15.431Z,1019.2
2017-05-27T09:07:15.368Z,1019.25
2017-05-27T09:08:15.305Z,1019.23
2017-05-27T09:09:15.241Z,1019.25
2017-05-27T09:10:15.178Z,1019.22
2017-05-27T09:11:15.115Z,1019.21
2017-05-27T09:12:15.050Z,1019.2
2017-05-27T09:13:14.987Z,1019.23
2017-05-27T09:14:14.923Z,1019.26
2017-05-27T09:15:14.863Z,1019.29
2017-05-27T09:16:14.797Z,1019.26
2017-05-27T09:17:14.734Z,1019.23
2017-05-27T09:18:14.670Z,1019.25
2017-05-27T09:19:14.607Z,1019.26
2017-05-27T09:20:14.543Z,1019.23
2017-05-27T09:21:14.480Z,1019.24
2017-05-27T09:22:14.417Z,1019.22
2017-05-27T09:23:14.353Z,1019.18
2017-05-27T09:24:14.289Z,1019.15
2017-05-27T09:25:14.226Z,1019.17
2017-05-27T09:26:14.163Z,1019.15
2017-05-27T09:27:14.099Z,1019.16
2017-05-27T09:28:14.035Z,1019.15
2017-05-27T09:29:13.974Z,1019.08
2017-05-27T09:30:13.909Z,1019.11
2017-05-27T09:31:13.846Z,1019.06
2017-05-27T09:32:13.782Z,1019.08
2017-05-27T09:33:13.719Z,1019.03
2017-05-27T09:34:13.655Z,1019.07
2017-05-27T09:35:13.592Z,1019.04
2017-05-27T09:36:13.528Z,1019.07
2017-05-27T09:37:13.465Z,1019.07
2017-05-27T09:38:13.401Z,1019.05
2017-05-27T09:39:13.338Z,1019.03
2017-05-27T09:40:13.275Z,1019.06
2017-05-27T09:41:13.211Z,1018.98
2017-05-27T09:42:13.146Z,1018.94
2017-05-27T09:43:13.084Z,1018.94
2017-05-27T09:44:13.020Z,1018.94
2017-05-27T09:45:12.956Z,1019
2017-05-27T09:46:12.893Z,1018.97
2017-05-27T09:47:12.830Z,1018.99
2017-05-27T09:48:12.766Z,1018.98
2017-05-27T09:49:12.704Z,1018.99
2017-05-27T09:50:12.641Z,1018.95
2017-05-27T09:51:12.577Z,1018.91
2017-05-27T09:52:12.513Z,1018.92
2017-05-27T09:53:12.449Z,1018.89
2017-05-27T09:54:12.386Z,1018.89
2017-05-27T09:55:12.323Z,1018.89
2017-05-27T09:56:12.259Z,1018.85
2017-05-27T09:57:12.196Z,1018.85
2017-05-27T09:58:12.132Z,1018.84
2017-05-27T09:59:12.067Z,1018.78
2017-05-27T10:00:12.004Z,1018.81
2017-05-27T10:01:11.940Z,1018.83
2017-05-27T10:02:11.877Z,1018.83
2017-05-27T10:03:11.813Z,1018.85
2017-05-27T10:04:11.750Z,1018.8
2017-05-27T10:05:11.687Z,1018.79
2017-05-27T10:06:11.624Z,1018.83
2017-05-27T10:07:11.559Z,1018.8
2017-05-27T10:08:11.497Z,1018.82
2017-05-27T10:09:11.434Z,1018.81
2017-05-27T10:10:11.372Z,1018.77
2017-05-27T10:11:11.307Z,1018.76
2017-05-27T10:12:11.243Z,1018.75
2017-05-27T10:13:11.180Z,1018.71
2017-05-27T10:14:11.122Z,1018.75
2017-05-27T10:15:11.052Z,1018.72
2017-05-27T10:16:10.989Z,1018.75
2017-05-27T10:17:10.926Z,1018.74
2017-05-27T10:18:10.862Z,1018.74
2017-05-27T10:19:10.798Z,1018.7
2017-05-27T10:20:10.735Z,1018.7
2017-05-27T10:21:10.671Z,1018.71
2017-05-27T10:22:10.608Z,1018.72
2017-05-27T10:23:10.548Z,1018.72
2017-05-27T10:24:10.482Z,1018.78
2017-05-27T10:25:10.417Z,1018.71
2017-05-27T10:26:10.353Z,1018.69
2017-05-27T10:27:10.290Z,1018.68
2017-05-27T10:28:10.227Z,1018.66
2017-05-27T10:29:10.163Z,1018.66
2017-05-27T10:30:10.100Z,1018.66
2017-05-27T10:31:10.038Z,1018.66
2017-05-27T10:32:09.972Z,1018.65
2017-05-27T10:33:09.908Z,1018.71
2017-05-27T10:34:09.846Z,1018.74
2017-05-27T10:35:09.783Z,1018.73
2017-05-27T10:36:09.719Z,1018.66
2017-05-27T10:37:09.656Z,1018.65
2017-05-27T10:38:09.592Z,1018.69
2017-05-27T10:39:09.529Z,1018.65
2017-05-27T10:40:09.465Z,1018.62
2017-05-27T10:41:09.402Z,1018.62
2017-05-27T10:42:09.339Z,1018.65
2017-05-27T10:43:09.274Z,1018.69
2017-05-27T10:44:09.211Z,1018.64
2017-05-27T10:45:09.148Z,1018.67
2017-05-27T10:46:09.089Z,1018.62
2017-05-27T10:47:09.020Z,1018.64
2017-05-27T10:48:08.956Z,1018.63
2017-05-27T10:49:08.895Z,1018.61
2017-05-27T10:50:08.830Z,1018.61
2017-05-27T10:51:08.767Z,1018.61
2017-05-27T10:52:08.704Z,1018.6
2017-05-27T10:53:08.640Z,1018.58
2017-05-27T10:54:08.577Z,1018.57
2017-05-27T10:55:08.513Z,1018.55
2017-05-27T10:56:08.450Z,1018.59
2017-05-27T10:57:08.387Z,1018.55
2017-05-27T10:58:08.323Z,1018.58
2017-05-27T10:59:08.260Z,1018.56
2017-05-27T11:00:08.196Z,1018.56
2017-05-27T11:01:08.133Z,1018.52
2017-05-27T11:02:08.068Z,1018.51
2017-05-27T11:03:08.006Z,1018.56
2017-05-27T11:04:07.942Z,1018.55
2017-05-27T11:05:07.879Z,1018.54
2017-05-27T11:06:07.815Z,1018.53
2017-05-27T11:07:07.752Z,1018.52
2017-05-27T11:08:07.688Z,1018.5
2017-05-27T11:09:07.625Z,1018.51
2017-05-27T11:10:07.562Z,1018.46
2017-05-27T11:11:07.498Z,1018.47
2017-05-27T11:12:07.436Z,1018.47
2017-05-27T11:13:07.371Z,1018.46
2017-05-27T11:14:07.307Z,1018.41
2017-05-27T11:15:07.245Z,1018.38
2017-05-27T11:16:07.180Z,1018.39
2017-05-27T11:17:07.118Z,1018.37
2017-05-27T11:18:07.054Z,1018.33
2017-05-27T11:19:06.992Z,1018.32
2017-05-27T11:20:06.928Z,1018.33
2017-05-27T11:21:06.864Z,1018.34
2017-05-27T11:22:06.801Z,1018.32
2017-05-27T11:23:06.738Z,1018.29
2017-05-27T11:24:06.675Z,1018.28
2017-05-27T11:25:06.612Z,1018.33
2017-05-27T11:26:06.550Z,1018.27
2017-05-27T11:27:06.486Z,1018.3
2017-05-27T11:28:06.421Z,1018.26
2017-05-27T11:29:06.360Z,1018.32
2017-05-27T11:30:06.295Z,1018.25
2017-05-27T11:31:06.231Z,1018.25
2017-05-27T11:32:06.168Z,1018.2
2017-05-27T11:33:06.104Z,1018.18
2017-05-27T11:34:06.039Z,1018.14
2017-05-27T11:35:06.227Z,1018.13
2017-05-27T11:36:05.913Z,1018.2
2017-05-27T11:37:05.851Z,1018.16
2017-05-27T11:38:05.787Z,1018.13
2017-05-27T11:39:05.727Z,1018.18
2017-05-27T11:40:05.661Z,1018.17
2017-05-27T11:41:05.598Z,1018.15
2017-05-27T11:42:05.533Z,1018.18
2017-05-27T11:43:05.470Z,1018.2
2017-05-27T11:44:05.407Z,1018.19
2017-05-27T11:45:05.343Z,1018.16
2017-05-27T11:46:05.279Z,1018.16
2017-05-27T11:47:05.216Z,1018.12
2017-05-27T11:48:05.153Z,1018.13
2017-05-27T11:49:05.089Z,1018.1
2017-05-27T11:50:05.025Z,1018.1
2017-05-27T11:51:04.963Z,1018.1
2017-05-27T11:52:04.900Z,1018.1
2017-05-27T11:53:04.836Z,1018.07
2017-05-27T11:54:04.772Z,1018.08
2017-05-27T11:55:04.709Z,1018.06
2017-05-27T11:56:04.645Z,1018.05
2017-05-27T11:57:04.582Z,1018.02
2017-05-27T11:58:04.518Z,1018.01
2017-05-27T11:59:04.455Z,1018
2017-05-27T12:00:04.391Z,1017.96
2017-05-27T12:01:04.328Z,1017.98
2017-05-27T12:02:04.264Z,1017.98
2017-05-27T12:03:04.201Z,1017.99
2017-05-27T12:04:04.137Z,1017.95
2017-05-27T12:05:04.074Z,1017.95
2017-05-27T12:06:04.011Z,1017.89
2017-05-27T12:07:03.994Z,1017.9
2017-05-27T12:08:03.884Z,1017.91
2017-05-27T12:09:03.820Z,1017.93
2017-05-27T12:10:03.757Z,1017.92